createdAt,value
2018-04-09T00:01:49.391Z,12.50
2018-04-09T00:04:15.640Z,12.60
2018-04-09T00:06:41.895Z,12.50
2018-04-09T00:09:08.252Z,12.50
2018-04-09T00:11:34.502Z,12.40
2018-04-09T00:14:00.745Z,12.50
2018-04-09T00:16:26.953Z,12.50
2018-04-09T00:18:53.213Z,12.50
2018-04-09T00:21:19.438Z,12.50
2018-04-09T00:23:45.669Z,12.50
2018-04-09T00:26:11.898Z,12.40
2018-04-09T00:28:38.159Z,12.50
2018-04-09T00:31:04.433Z,12.40
2018-04-09T00:33:30.670Z,12.30
2018-04-09T00:35:56.918Z,12.30
2018-04-09T00:38:23.177Z,12.30
2018-04-09T00:40:49.794Z,12.10
2018-04-09T00:43:16.027Z,12.10
2018-04-09T00:45:42.223Z,12.10
2018-04-09T00:48:08.462Z,12.00
2018-04-09T00:50:34.684Z,11.90
2018-04-09T00:53:00.884Z,11.90
2018-04-09T00:55:27.121Z,11.80
2018-04-09T00:57:53.342Z,11.80
2018-04-09T01:00:19.611Z,11.80
2018-04-09T01:02:45.829Z,11.90
2018-04-09T01:05:12.096Z,11.90
2018-04-09T01:07:38.732Z,11.80
2018-04-09T01:10:05.329Z,11.70
2018-04-09T01:12:31.583Z,11.70
2018-04-09T01:14:57.783Z,11.70
2018-04-09T01:17:23.996Z,11.60
2018-04-09T01:19:50.253Z,11.50
2018-04-09T01:22:16.450Z,11.60
2018-04-09T01:24:42.689Z,11.50
2018-04-09T01:27:08.898Z,11.50
2018-04-09T01:29:35.129Z,11.50
2018-04-09T01:32:01.373Z,11.50
2018-04-09T01:34:27.615Z,11.50
2018-04-09T01:36:53.870Z,11.40
2018-04-09T01:39:20.435Z,11.20
2018-04-09T01:41:46.653Z,11.20
2018-04-09T01:44:12.911Z,11.10
2018-04-09T01:46:39.114Z,11.00
2018-04-09T01:49:05.349Z,10.90
2018-04-09T01:51:31.585Z,10.90
2018-04-09T01:53:57.792Z,10.90
2018-04-09T01:56:24.355Z,10.90
2018-04-09T01:58:50.598Z,10.90
2018-04-09T02:01:16.846Z,10.90
2018-04-09T02:03:43.070Z,10.70
2018-04-09T02:06:09.310Z,10.60
2018-04-09T02:08:36.522Z,10.60
2018-04-09T02:11:02.780Z,10.60
2018-04-09T02:13:28.985Z,10.70
2018-04-09T02:15:55.243Z,10.70
2018-04-09T02:18:21.478Z,10.60
2018-04-09T02:20:47.702Z,10.70
2018-04-09T02:23:13.934Z,10.60
2018-04-09T02:25:40.128Z,10.60
2018-04-09T02:28:06.350Z,10.50
2018-04-09T02:30:32.623Z,10.60
2018-04-09T02:32:58.845Z,10.60
2018-04-09T02:35:25.065Z,10.50
2018-04-09T02:37:51.298Z,10.50
2018-04-09T02:40:17.560Z,10.50
2018-04-09T02:42:44.392Z,10.60
2018-04-09T02:45:10.615Z,10.40
2018-04-09T02:47:36.834Z,10.50
2018-04-09T02:50:03.090Z,10.50
2018-04-09T02:52:29.347Z,10.40
2018-04-09T02:54:55.641Z,10.50
2018-04-09T02:57:21.794Z,10.60
2018-04-09T02:59:48.029Z,10.50
2018-04-09T03:02:14.297Z,10.50
2018-04-09T03:04:40.621Z,10.50
2018-04-09T03:07:06.897Z,10.40
2018-04-09T03:09:33.108Z,10.50
2018-04-09T03:12:00.207Z,10.50
2018-04-09T03:14:26.460Z,10.40
2018-04-09T03:16:52.682Z,10.30
2018-04-09T03:19:18.882Z,10.20
2018-04-09T03:21:45.115Z,10.30
2018-04-09T03:24:12.280Z,10.30
2018-04-09T03:26:38.480Z,10.30
2018-04-09T03:29:04.763Z,10.20
2018-04-09T03:31:30.990Z,10.20
2018-04-09T03:33:57.239Z,10.10
2018-04-09T03:36:23.504Z,10.10
2018-04-09T03:38:49.715Z,9.90
2018-04-09T03:41:15.928Z,9.90
2018-04-09T03:43:42.198Z,9.90
2018-04-09T03:46:08.410Z,9.90
2018-04-09T03:48:34.674Z,9.90
2018-04-09T03:51:00.947Z,9.90
2018-04-09T03:53:27.150Z,9.80
2018-04-09T03:55:53.760Z,9.80
2018-04-09T03:58:20.044Z,9.80
2018-04-09T04:00:46.642Z,9.90
2018-04-09T04:03:12.870Z,9.90
2018-04-09T04:05:39.106Z,9.90
2018-04-09T04:08:05.387Z,10.00
2018-04-09T04:10:31.596Z,10.00
2018-04-09T04:12:57.830Z,9.90
2018-04-09T04:15:36.182Z,9.90
2018-04-09T04:18:14.752Z,9.90
2018-04-09T04:20:53.116Z,9.90
2018-04-09T04:23:19.762Z,9.80
2018-04-09T04:25:45.972Z,9.90
2018-04-09T04:28:12.204Z,9.80
2018-04-09T04:30:38.438Z,9.80
2018-04-09T04:33:04.674Z,9.70
2018-04-09T04:35:30.918Z,9.70
2018-04-09T04:37:57.495Z,9.70
2018-04-09T04:40:23.751Z,9.80
2018-04-09T04:42:49.979Z,9.80
2018-04-09T04:45:16.204Z,9.70
2018-04-09T04:47:42.433Z,9.70
2018-04-09T04:50:08.675Z,9.70
2018-04-09T04:52:34.885Z,9.80
2018-04-09T04:55:01.138Z,9.70
2018-04-09T04:57:27.346Z,9.70
2018-04-09T04:59:53.564Z,9.60
2018-04-09T05:02:19.821Z,9.60
2018-04-09T05:04:46.015Z,9.70
2018-04-09T05:07:12.258Z,9.70
2018-04-09T05:09:38.488Z,9.70
2018-04-09T05:12:04.698Z,9.70
2018-04-09T05:14:30.921Z,9.70
2018-04-09T05:16:57.150Z,9.60
2018-04-09T05:19:23.415Z,9.60
2018-04-09T05:21:50.042Z,9.50
2018-04-09T05:24:17.262Z,9.50
2018-04-09T05:26:43.485Z,9.60
2018-04-09T05:29:09.714Z,9.70
2018-04-09T05:34:08.979Z,9.70
2018-04-09T05:36:36.427Z,9.80
2018-04-09T05:39:02.752Z,9.80
2018-04-09T05:41:28.993Z,9.80
2018-04-09T05:43:55.229Z,9.80
2018-04-09T05:46:21.449Z,9.80
2018-04-09T05:48:47.701Z,9.90
2018-04-09T05:51:13.938Z,9.90
2018-04-09T05:53:40.155Z,10.00
2018-04-09T05:56:06.412Z,10.10
2018-04-09T05:58:32.618Z,10.10
2018-04-09T06:00:59.790Z,10.20
2018-04-09T06:03:26.012Z,10.30
2018-04-09T06:05:52.230Z,10.30
2018-04-09T06:08:18.486Z,10.30
2018-04-09T06:10:51.659Z,10.30
2018-04-09T06:13:17.914Z,10.50
2018-04-09T06:15:44.127Z,10.60
2018-04-09T06:18:10.451Z,10.70
2018-04-09T06:20:36.696Z,10.70
2018-04-09T06:23:02.944Z,10.80
2018-04-09T06:25:29.198Z,10.60
2018-04-09T06:27:55.829Z,10.60
2018-04-09T06:30:22.392Z,10.60
2018-04-09T06:32:48.678Z,10.60
2018-04-09T06:35:14.985Z,10.70
2018-04-09T06:37:41.211Z,10.90
2018-04-09T06:40:07.505Z,11.00
2018-04-09T06:42:33.763Z,11.20
2018-04-09T06:45:00.024Z,11.30
2018-04-09T06:47:26.239Z,11.50
2018-04-09T06:49:52.508Z,11.60
2018-04-09T06:52:18.738Z,11.70
2018-04-09T06:54:44.965Z,11.70
2018-04-09T06:57:11.227Z,11.80
2018-04-09T06:59:37.507Z,11.80
2018-04-09T07:02:03.794Z,11.70
2018-04-09T07:04:30.048Z,11.60
2018-04-09T07:06:56.307Z,11.60
2018-04-09T07:09:22.524Z,11.70
2018-04-09T07:11:48.738Z,12.00
2018-04-09T07:14:14.991Z,12.10
2018-04-09T07:16:41.224Z,12.20
2018-04-09T07:19:07.480Z,12.30
2018-04-09T07:21:33.707Z,12.40
2018-04-09T07:23:59.930Z,12.60
2018-04-09T07:26:26.160Z,12.70
2018-04-09T07:28:52.396Z,12.90
2018-04-09T07:31:19.501Z,13.10
2018-04-09T07:33:46.098Z,13.60
2018-04-09T07:36:12.301Z,13.60
2018-04-09T07:38:38.538Z,13.80
2018-04-09T07:41:04.771Z,14.00
2018-04-09T07:43:31.015Z,14.10
2018-04-09T07:45:57.260Z,14.20
2018-04-09T07:48:24.512Z,14.30
2018-04-09T07:50:50.789Z,14.60
2018-04-09T07:53:17.020Z,14.80
2018-04-09T07:55:43.278Z,14.90
2018-04-09T07:58:09.510Z,15.10
2018-04-09T08:00:35.755Z,15.30
2018-04-09T08:03:02.365Z,15.60
2018-04-09T08:05:28.618Z,15.60
2018-04-09T08:07:54.853Z,15.60
2018-04-09T08:10:21.090Z,15.50
2018-04-09T08:12:47.719Z,15.40
2018-04-09T08:15:14.354Z,15.20
2018-04-09T08:17:40.605Z,15.20
2018-04-09T08:20:07.221Z,15.20
2018-04-09T08:22:33.438Z,15.20
2018-04-09T08:24:59.667Z,15.30
2018-04-09T08:27:25.951Z,15.40
2018-04-09T08:29:52.207Z,15.30
2018-04-09T08:32:18.446Z,15.40
2018-04-09T08:34:44.685Z,15.50
2018-04-09T08:37:10.893Z,15.50
2018-04-09T08:39:37.097Z,15.50
2018-04-09T08:42:03.376Z,15.70
2018-04-09T08:44:29.601Z,15.90
2018-04-09T08:46:55.799Z,15.90
2018-04-09T08:49:22.054Z,16.10
2018-04-09T08:51:49.181Z,16.30
2018-04-09T08:54:15.425Z,16.40
2018-04-09T08:56:41.634Z,16.30
2018-04-09T08:59:07.841Z,16.10
2018-04-09T09:01:34.083Z,16.00
2018-04-09T09:04:00.355Z,15.80
2018-04-09T09:06:26.552Z,15.90
2018-04-09T09:08:53.640Z,16.30
2018-04-09T09:11:19.872Z,16.60
2018-04-09T09:13:46.086Z,16.80
2018-04-09T09:16:12.336Z,17.20
2018-04-09T09:18:38.589Z,17.60
2018-04-09T09:21:04.811Z,17.90
2018-04-09T09:23:31.021Z,18.20
2018-04-09T09:25:57.245Z,18.30
2018-04-09T09:28:30.378Z,18.60
2018-04-09T09:30:56.617Z,18.70
2018-04-09T09:33:22.921Z,18.80
2018-04-09T09:35:49.158Z,18.80
2018-04-09T09:38:15.367Z,18.50
2018-04-09T09:40:41.654Z,18.80
2018-04-09T09:43:07.897Z,19.00
2018-04-09T09:45:34.506Z,19.20
2018-04-09T09:48:00.740Z,19.20
2018-04-09T09:50:26.981Z,19.40
2018-04-09T09:52:53.181Z,19.80
2018-04-09T09:55:19.451Z,20.00
2018-04-09T09:57:46.078Z,20.50
2018-04-09T10:00:12.776Z,20.70
2018-04-09T10:02:45.160Z,20.70
2018-04-09T10:05:11.413Z,20.90
2018-04-09T10:07:37.678Z,20.60
2018-04-09T10:10:04.526Z,20.90
2018-04-09T10:12:30.726Z,21.00
2018-04-09T10:14:56.930Z,21.10
2018-04-09T10:17:23.199Z,20.90
2018-04-09T10:19:49.443Z,20.50
2018-04-09T10:22:15.642Z,20.60
2018-04-09T10:24:41.915Z,20.50
2018-04-09T10:27:08.184Z,20.40
2018-04-09T10:29:34.813Z,20.20
2018-04-09T10:32:01.053Z,20.20
2018-04-09T10:34:27.326Z,20.30
2018-04-09T10:36:53.578Z,20.30
2018-04-09T10:39:19.816Z,20.50
2018-04-09T10:41:46.051Z,20.80
2018-04-09T10:44:12.311Z,21.20
2018-04-09T10:46:38.950Z,22.40
2018-04-09T10:49:05.172Z,22.50
2018-04-09T10:51:31.433Z,22.70
2018-04-09T10:53:57.652Z,23.00
2018-04-09T10:56:23.893Z,23.90
2018-04-09T10:58:50.219Z,25.10
2018-04-09T11:01:16.480Z,26.50
2018-04-09T11:03:42.794Z,27.60
2018-04-09T11:06:09.020Z,27.80
2018-04-09T11:08:35.249Z,27.50
2018-04-09T11:11:01.459Z,27.00
2018-04-09T11:13:27.739Z,26.80
2018-04-09T11:15:53.979Z,26.60
2018-04-09T11:18:20.614Z,26.50
2018-04-09T11:20:47.218Z,26.40
2018-04-09T11:23:13.420Z,26.40
2018-04-09T11:25:39.697Z,26.20
2018-04-09T11:28:05.929Z,25.90
2018-04-09T11:30:32.174Z,25.30
2018-04-09T11:32:58.774Z,25.90
2018-04-09T11:35:24.997Z,25.80
2018-04-09T11:37:51.517Z,27.80
2018-04-09T11:40:17.788Z,30.10
2018-04-09T11:42:44.015Z,30.70
2018-04-09T11:45:10.283Z,29.90
2018-04-09T11:47:36.570Z,28.70
2018-04-09T11:50:02.987Z,28.00
2018-04-09T11:52:29.265Z,28.90
2018-04-09T11:54:55.838Z,31.00
2018-04-09T11:57:22.041Z,31.00
2018-04-09T11:59:48.263Z,32.10
2018-04-09T12:02:14.549Z,32.90
2018-04-09T12:04:40.734Z,32.60
2018-04-09T12:07:06.952Z,32.50
2018-04-09T12:09:33.186Z,32.90
2018-04-09T12:11:59.413Z,34.70
2018-04-09T12:14:25.663Z,36.90
2018-04-09T12:16:51.898Z,37.50
2018-04-09T12:19:18.209Z,37.30
2018-04-09T12:21:44.516Z,37.80
2018-04-09T12:24:10.746Z,37.90
2018-04-09T12:26:37.037Z,37.00
2018-04-09T12:29:03.307Z,36.20
2018-04-09T12:31:29.551Z,34.70
2018-04-09T12:33:55.825Z,33.00
2018-04-09T12:36:22.076Z,32.10
2018-04-09T12:38:48.351Z,31.30
2018-04-09T12:41:15.132Z,30.40
2018-04-09T12:43:41.364Z,29.60
2018-04-09T12:46:07.848Z,28.70
2018-04-09T12:48:34.108Z,27.80
2018-04-09T12:51:00.356Z,27.30
2018-04-09T12:53:27.060Z,27.30
2018-04-09T12:55:53.362Z,27.30
2018-04-09T12:58:19.599Z,26.80
2018-04-09T13:00:45.877Z,26.00
2018-04-09T13:03:12.512Z,25.60
2018-04-09T13:05:38.790Z,25.60
2018-04-09T13:08:05.081Z,25.50
2018-04-09T13:10:31.358Z,25.50
2018-04-09T13:12:57.623Z,25.60
2018-04-09T13:15:23.884Z,25.80
2018-04-09T13:17:50.477Z,26.20
2018-04-09T13:20:16.682Z,26.20
2018-04-09T13:22:42.982Z,26.50
2018-04-09T13:25:09.224Z,26.50
2018-04-09T13:27:35.478Z,26.20
2018-04-09T13:30:01.732Z,26.20
2018-04-09T13:32:27.961Z,26.30
2018-04-09T13:34:54.158Z,26.20
2018-04-09T13:37:20.409Z,25.70
2018-04-09T13:39:46.617Z,25.40
2018-04-09T13:42:12.874Z,25.10
2018-04-09T13:44:39.103Z,24.80
2018-04-09T13:47:05.344Z,24.60
2018-04-09T13:49:31.954Z,24.20
2018-04-09T13:51:58.176Z,24.20
2018-04-09T13:54:24.395Z,23.90
2018-04-09T13:56:50.602Z,23.70
2018-04-09T13:59:16.823Z,23.80
2018-04-09T14:01:43.021Z,23.70
2018-04-09T14:04:09.651Z,23.50
2018-04-09T14:06:36.357Z,23.60
2018-04-09T14:09:02.621Z,23.60
2018-04-09T14:11:29.255Z,23.80
2018-04-09T14:13:55.583Z,23.80
2018-04-09T14:16:22.207Z,24.00
2018-04-09T14:18:48.469Z,24.10
2018-04-09T14:21:15.071Z,24.40
2018-04-09T14:23:41.300Z,24.40
2018-04-09T14:26:07.556Z,24.50
2018-04-09T14:28:34.167Z,25.30
2018-04-09T14:31:00.372Z,25.30
2018-04-09T14:33:26.574Z,25.60
2018-04-09T14:35:52.836Z,26.00
2018-04-09T14:38:19.115Z,26.20
2018-04-09T14:40:45.720Z,26.00
2018-04-09T14:43:12.020Z,26.00
2018-04-09T14:45:38.327Z,25.30
2018-04-09T14:48:04.569Z,25.20
2018-04-09T14:50:31.413Z,25.20
2018-04-09T14:52:57.634Z,25.30
2018-04-09T14:55:23.893Z,25.40
2018-04-09T14:57:50.141Z,25.50
2018-04-09T15:00:16.418Z,25.40
2018-04-09T15:02:42.683Z,25.30
2018-04-09T15:05:08.936Z,25.50
2018-04-09T15:07:35.961Z,25.50
2018-04-09T15:10:02.282Z,25.40
2018-04-09T15:12:28.496Z,25.20
2018-04-09T15:14:54.789Z,25.00
2018-04-09T15:17:21.016Z,25.00
2018-04-09T15:19:48.203Z,25.00
2018-04-09T15:22:14.464Z,25.00
2018-04-09T15:24:40.732Z,25.10
2018-04-09T15:27:07.802Z,25.10
2018-04-09T15:29:34.058Z,25.10
2018-04-09T15:32:00.353Z,25.00
2018-04-09T15:34:26.642Z,24.80
2018-04-09T15:36:52.845Z,24.50
2018-04-09T15:39:19.932Z,24.40
2018-04-09T15:41:46.524Z,24.40
2018-04-09T15:44:12.750Z,24.40
2018-04-09T15:46:39.000Z,24.60
2018-04-09T15:49:05.230Z,24.50
2018-04-09T15:51:31.484Z,24.40
2018-04-09T15:53:57.688Z,24.60
2018-04-09T15:56:23.983Z,24.50
2018-04-09T15:58:50.235Z,24.60
2018-04-09T16:01:16.446Z,24.50
2018-04-09T16:03:42.707Z,24.60
2018-04-09T16:06:08.956Z,24.60
2018-04-09T16:08:35.187Z,24.50
2018-04-09T16:11:01.424Z,24.60
2018-04-09T16:13:27.686Z,24.60
2018-04-09T16:15:53.927Z,24.50
2018-04-09T16:18:20.161Z,24.40
2018-04-09T16:20:46.456Z,24.30
2018-04-09T16:23:12.694Z,24.20
2018-04-09T16:25:38.896Z,24.10
2018-04-09T16:28:05.179Z,23.90
2018-04-09T16:30:38.345Z,23.80
2018-04-09T16:33:04.630Z,23.70
2018-04-09T16:35:30.887Z,23.60
2018-04-09T16:37:57.722Z,23.40
2018-04-09T16:40:24.001Z,23.30
2018-04-09T16:42:50.223Z,23.20
2018-04-09T16:45:16.434Z,23.10
2018-04-09T16:47:42.662Z,22.90
2018-04-09T16:50:08.994Z,22.90
2018-04-09T16:52:35.257Z,22.80
2018-04-09T16:55:01.864Z,22.50
2018-04-09T16:57:28.143Z,22.50
2018-04-09T16:59:54.434Z,22.40
2018-04-09T17:02:20.665Z,22.20
2018-04-09T17:04:46.968Z,22.10
2018-04-09T17:07:13.186Z,22.00
2018-04-09T17:09:39.460Z,21.90
2018-04-09T17:12:05.737Z,21.90
2018-04-09T17:14:31.980Z,21.90
2018-04-09T17:16:58.274Z,21.90
2018-04-09T17:19:24.543Z,21.90
2018-04-09T17:21:50.746Z,21.90
2018-04-09T17:24:23.795Z,21.90
2018-04-09T17:26:50.058Z,21.80
2018-04-09T17:29:23.117Z,21.70
2018-04-09T17:31:49.375Z,21.60
2018-04-09T17:34:15.669Z,21.50
2018-04-09T17:36:41.957Z,21.40
2018-04-09T17:39:08.592Z,21.30
2018-04-09T17:41:34.892Z,21.20
2018-04-09T17:44:01.173Z,21.10
2018-04-09T17:46:27.459Z,21.00
2018-04-09T17:48:53.757Z,20.80
2018-04-09T17:51:20.368Z,20.60
2018-04-09T17:53:46.637Z,20.60
2018-04-09T17:56:13.340Z,20.30
2018-04-09T17:58:40.700Z,20.40
2018-04-09T18:01:07.052Z,20.20
2018-04-09T18:03:33.688Z,20.00
2018-04-09T18:06:00.372Z,19.80
2018-04-09T18:08:26.626Z,19.80
2018-04-09T18:10:52.870Z,19.60
2018-04-09T18:13:19.123Z,19.50
2018-04-09T18:15:45.377Z,19.30
2018-04-09T18:18:11.640Z,19.20
2018-04-09T18:20:37.865Z,19.10
2018-04-09T18:23:04.105Z,19.00
2018-04-09T18:25:30.415Z,18.90
2018-04-09T18:27:56.697Z,18.80
2018-04-09T18:30:22.949Z,18.70
2018-04-09T18:32:49.213Z,18.60
2018-04-09T18:35:15.444Z,18.40
2018-04-09T18:37:42.356Z,18.40
2018-04-09T18:40:08.620Z,18.30
2018-04-09T18:42:34.882Z,18.20
2018-04-09T18:45:01.153Z,18.20
2018-04-09T18:47:27.516Z,18.20
2018-04-09T18:49:53.821Z,18.20
2018-04-09T18:52:20.084Z,18.00
2018-04-09T18:54:46.345Z,18.00
2018-04-09T18:57:12.602Z,18.10
2018-04-09T18:59:38.926Z,18.10
2018-04-09T19:02:05.241Z,18.20
2018-04-09T19:04:31.494Z,18.20
2018-04-09T19:06:57.748Z,18.10
2018-04-09T19:09:24.048Z,18.10
2018-04-09T19:11:51.286Z,18.10
2018-04-09T19:14:17.613Z,17.90
2018-04-09T19:16:43.904Z,17.80
2018-04-09T19:19:10.180Z,17.70
2018-04-09T19:21:36.443Z,17.60
2018-04-09T19:24:02.769Z,17.60
2018-04-09T19:26:29.981Z,17.70
2018-04-09T19:28:56.243Z,17.60
2018-04-09T19:31:22.509Z,17.60
2018-04-09T19:33:48.736Z,17.50
2018-04-09T19:36:21.031Z,17.50
2018-04-09T19:38:53.361Z,17.40
2018-04-09T19:41:39.152Z,17.30
2018-04-09T19:44:05.400Z,17.20
2018-04-09T19:46:50.419Z,17.00
2018-04-09T19:49:16.787Z,17.00
2018-04-09T19:51:43.051Z,16.90
2018-04-09T19:54:09.321Z,16.80
2018-04-09T19:56:35.561Z,16.80
2018-04-09T19:59:02.663Z,16.70
2018-04-09T20:01:28.877Z,16.70
2018-04-09T20:03:55.099Z,16.60
2018-04-09T20:06:21.719Z,16.50
2018-04-09T20:08:47.946Z,16.50
2018-04-09T20:11:14.193Z,16.50
2018-04-09T20:13:40.420Z,16.60
2018-04-09T20:16:06.654Z,16.60
2018-04-09T20:18:32.851Z,16.40
2018-04-09T20:20:59.058Z,16.40
2018-04-09T20:23:25.250Z,16.30
2018-04-09T20:25:51.497Z,16.30
2018-04-09T20:28:17.702Z,16.40
2018-04-09T20:30:43.923Z,16.40
2018-04-09T20:33:10.525Z,16.50
2018-04-09T20:35:36.719Z,16.50
2018-04-09T20:38:03.959Z,16.40
2018-04-09T20:40:30.881Z,16.30
2018-04-09T20:42:57.066Z,16.20
2018-04-09T20:45:23.277Z,16.40
2018-04-09T20:47:49.524Z,16.50
2018-04-09T20:50:15.754Z,16.60
2018-04-09T20:52:41.963Z,16.70
2018-04-09T20:55:08.164Z,16.70
2018-04-09T20:57:34.401Z,16.60
2018-04-09T21:00:00.649Z,16.60
2018-04-09T21:02:27.571Z,16.50
2018-04-09T21:04:53.784Z,16.20
2018-04-09T21:07:19.991Z,16.10
2018-04-09T21:09:46.546Z,16.10
2018-04-09T21:12:12.811Z,16.10
2018-04-09T21:14:39.071Z,16.20
2018-04-09T21:17:06.007Z,16.10
2018-04-09T21:19:32.224Z,16.20
2018-04-09T21:21:58.422Z,16.20
2018-04-09T21:24:24.602Z,16.20
2018-04-09T21:26:50.823Z,16.20
2018-04-09T21:29:17.015Z,16.00
2018-04-09T21:31:43.230Z,15.90
2018-04-09T21:34:09.436Z,15.90
2018-04-09T21:36:35.649Z,15.70
2018-04-09T21:39:01.897Z,15.50
2018-04-09T21:41:28.127Z,15.40
2018-04-09T21:43:54.308Z,15.50
2018-04-09T21:46:20.569Z,15.50
2018-04-09T21:48:47.132Z,15.80
2018-04-09T21:51:13.324Z,15.80
2018-04-09T21:53:39.879Z,15.70
2018-04-09T21:56:06.086Z,15.70
2018-04-09T21:58:32.291Z,15.80
2018-04-09T22:00:58.502Z,15.70
2018-04-09T22:03:24.686Z,15.50
2018-04-09T22:05:50.896Z,15.40
2018-04-09T22:08:17.481Z,15.20
2018-04-09T22:10:43.719Z,15.20
2018-04-09T22:13:09.921Z,15.10
2018-04-09T22:15:36.121Z,15.00
2018-04-09T22:18:02.458Z,14.90
2018-04-09T22:20:29.064Z,14.80
2018-04-09T22:22:55.378Z,14.70
2018-04-09T22:25:21.588Z,14.70
2018-04-09T22:27:47.742Z,14.70
2018-04-09T22:30:13.947Z,14.60
2018-04-09T22:32:40.149Z,14.60
2018-04-09T22:35:06.339Z,14.50
2018-04-09T22:37:32.541Z,14.50
2018-04-09T22:39:58.718Z,14.40
2018-04-09T22:42:24.927Z,14.30
2018-04-09T22:44:51.504Z,14.30
2018-04-09T22:47:17.791Z,14.30
2018-04-09T22:49:44.364Z,14.00
2018-04-09T22:52:10.564Z,14.00
2018-04-09T22:54:36.784Z,13.90
2018-04-09T22:57:02.998Z,13.80
2018-04-09T22:59:29.206Z,13.70
2018-04-09T23:01:55.434Z,13.50
2018-04-09T23:04:21.603Z,13.50
2018-04-09T23:06:48.173Z,13.60
2018-04-09T23:09:14.344Z,13.60
2018-04-09T23:11:40.586Z,13.50
2018-04-09T23:14:06.788Z,13.50
2018-04-09T23:16:33.019Z,13.50
2018-04-09T23:19:00.084Z,13.50
2018-04-09T23:21:26.698Z,13.30
2018-04-09T23:23:52.933Z,13.30
2018-04-09T23:26:19.162Z,13.30
2018-04-09T23:28:45.381Z,13.30
2018-04-09T23:31:11.564Z,13.20
2018-04-09T23:33:37.789Z,13.20
2018-04-09T23:36:04.011Z,13.10
2018-04-09T23:38:30.227Z,13.00
2018-04-09T23:40:56.820Z,13.00
2018-04-09T23:43:23.064Z,12.90
2018-04-09T23:45:49.253Z,12.90
2018-04-09T23:48:15.476Z,12.90
2018-04-09T23:50:41.707Z,12.80
2018-04-09T23:53:07.936Z,12.80
2018-04-09T23:55:34.116Z,12.80
2018-04-09T23:58:00.332Z,12.80
